Latest Downloads page 86

Name Category Date
Million Dollar Listing New York S06E05 HDTV x264-W4F TV Shows 2017-12-25
Telling Lies in America (1997) 720p BRRip H264 AAC-RARBG Movies 2017-12-25
Mother 2017 1080p BluRay x264 - DRONES Movies 2017-12-25
Criminal Minds S13E09 720p HDTV x264-KILLERS TV Shows 2017-12-25
Adobe Photoshop CC 2018 19.0 165 (x64) Apps 2017-12-25
VA - Remixed Vol 1 (2017) Music 2017-12-25
Learn Complete Ethical Hacking Hacking Step By Step Course Tutorials 2017-12-25
House Of Dark Shadows (1970) 720p BRRip H264 AAC-RARBG Movies 2017-12-25
The Edible Flower Garden By Rosalind Creasy eBooks 2017-12-25
Happy!.S01E01.HDTV.x264-SVA TV Shows 2017-12-25
Bullzip PDF Studio 1.1.0.159 Portable Apps 2017-12-25
Happy.S01E01.HDTV.x264-SVA TV Shows 2017-12-25
Me Myself and I S01E06 HDTV x264-LOL TV Shows 2017-12-25
Mother 2017 720p BluRay x264 - DRONES Movies 2017-12-25
Logo Maker Plus- Graphic Design Generator v1.1.5.4 Apk Mobile 2017-12-25
Marie Curie (2016) 480p BRRip x264-mSD Movies 2017-12-25
JetBrains CLion 2017.3 Build 173.3727.114 (x64) Apps 2017-12-25
VA - Love You Forever (2017) Music 2017-12-25
The Flash 2014 S04E09 HDTV x264-SVA TV Shows 2017-12-25
Star Wars Rebels S04E04 HDTV x264-Mobile TV Shows 2017-12-25
Christmas Land 2015 HDTV x264 - W4F Movies 2017-12-25
Medicinal Plants of North America - A Field Guide (Falcon Guide) eBooks 2017-12-25
Gook (2017) 1080p BRRip x264-YTSAG Movies 2017-12-25
Vidiot 0.3.20 Multilingual Apps 2017-12-25
Knightfall.S01E01.HDTV.x264-SVA TV Shows 2017-12-25
VA - Junglist Resistance (2017) Music 2017-12-25
Knightfall Season 01 | S01E03 HDTV/ 720p/ x265 TV Shows 2017-12-25
Mother (2017) 1080p BluRay x264-DRONES Movies 2017-12-25
The Man with the Iron Heart 2017 BDRip x264 - PSYCHD Movies 2017-12-25
Mr.Robot.S03E09.HDTV.x264-SVA TV Shows 2017-12-25
Marvels Spider Man S01E14 HDTV x264-W4F TV Shows 2017-12-25
Return of the Fly (1959) 720p BRRip H264 AAC-RARBG Movies 2017-12-25
Knightfall.S01E01.HDTV.x264-SVA TV Shows 2017-12-25
Calibre 3.13.0 Multilingual Apps 2017-12-25
Mr.Robot.S03E09.HDTV.x264-SVA TV Shows 2017-12-25
Internet Radio Recorder Pro v5.0.0.3 Apk Mobile 2017-12-25
Knightfall Season 01 HDTV / 720p HDTV x264 / x265 | S01E01 TV Shows 2017-12-25
VA - Neurofunk From The Underground (2017) Music 2017-12-25
Most Wanted Nature Widescreen Wallpapers #366 Templates and Scripts 2017-12-25
The Goldbergs 2013 S05E09 HDTV x264-KILLERS TV Shows 2017-12-25
Death Ship (1980) 720p BRRip H264 AAC-RARBG Movies 2017-12-25
Knightfall Season 01 | S01E03 / 720p / 1080p / x265 TV Shows 2017-12-25
Photography as Meditation - Tap Into the Source of Your Creativity eBooks 2017-12-25
The Mayor (2017) S01E05 iNTERNAL HDTV XviD-AFG TV Shows 2017-12-25
Holiday Joy 2016 BDRip x264 - NOMAAM Movies 2017-12-25
Happy 2017 Season 01 WEB / 720p WEB / 1080p WEB x264 / x265 | S01E03 TV Shows 2017-12-25
Battleship Potemkin (1925) Restored Kino DVDRip Edition Movies 2017-12-25
Bajrangi Bhaijaan (2015) 480p BRRip x264-mSD Movies 2017-12-25
Criminal Minds S13E09 HDTV x264-KILLERS TV Shows 2017-12-25
The Marvelous Mrs Maisel S01E08 WEB H264-STRiFE TV Shows 2017-12-25
Black & Decker The Complete Guide to a Clutter-Free Home Organized Storage Solutions & Proje eBooks 2017-12-25
The Goldbergs S05E09 HDTV \ x264 \ XviD \ 720p TV Shows 2017-12-25
Orca (1977) 720p BRRip H264 AAC-RARBG Movies 2017-12-25
Speechless S02E09 720p HDTV x264-AVS TV Shows 2017-12-25
VA - Ignescent Chronicles 005 (2017) Music 2017-12-25
Microsoft Toolkit 2.6.3 Final (Activator for all Microsoft Windows and Office Editions) Apps 2017-12-25
Headspace: Meditation & Mindfulness v3.1.1 Apk Mobile 2017-12-25
The Man with the Iron Heart 2017 1080p BluRay x264 - PSYCHD Movies 2017-12-25
Brooklyn Nine-Nine S05E08 HDTV x264-SVA TV Shows 2017-12-25
Empire S04E08 HDTV \ x264 \ XviD \ 720p TV Shows 2017-12-25
Glory Day (2016) BDRip x264-killerHD Movies 2017-12-25
Mathematical Elegance - An Approachable Guide to Understanding Basic Concepts by Steven Goldberg eBooks 2017-12-25
Chicago PD S05E09 HDTV x264-KILLERS TV Shows 2017-12-25
VA - Monarch Records Reign One (2017) Music 2017-12-25
Dynasty (2017) S01E03 720p HDTV x264-KILLERS TV Shows 2017-12-25
Riverdale S02E08 HDTV \ x264 \ XviD \ 720p TV Shows 2017-12-25
All Saints (2017) 1080p BRRip x264-YTSAG Movies 2017-12-25
move app to sdcard pro v3.1.107Apk (Paid) Mobile 2017-12-25
Empire 2015 S04E08 720p WEB x264-TBS TV Shows 2017-12-25
MediaHuman YouTube Downloader 3.9.8.18 (3011) incl Patch Portable Apps 2017-12-25
Bull (2016) S02E06 iNTERNAL 720p WEB x264-BAMBOOZLE TV Shows 2017-12-25
Nutty Professor II The Klumps (2000) REMASTERED 720p BRRip H264 AAC-RARBG Movies 2017-12-25
Knightfall S01E01 HDTV \ x264 \ XviD \ 720p TV Shows 2017-12-25
Empire 2015 S04E08 WEB x264-TBS TV Shows 2017-12-25
The Exorcist S02E08 HDTV x264-SVA TV Shows 2017-12-25
Death Hunt (1981) 720p BRRip H264 AAC-RARBG Movies 2017-12-25
Gook 2017 LIMITED 720p BluRay x264 - HAiDEAF Movies 2017-12-25
Affinity Photo 1.6.2.97 Setup Serial Apps 2017-12-25
Speechless S02E09 HDTV \ x264 \ XviD \ 720p TV Shows 2017-12-25
Chicago PD S05E09 720p HDTV x264-KILLERS TV Shows 2017-12-25
Hibernator : Close running apps v2.3.3 Apk Mobile 2017-12-25
Franzis Hdr Projects 2018 Professional v6.64.02783 Multilingual(x64)(Portable) Apps 2017-12-25
The Long Road Home S01E05 480p HDTV x264-mSD TV Shows 2017-12-25
1000 Mexicans (2016) BDRip x264-PussyFoot Movies 2017-12-25
VA - MACII Presents PIECES Session 2 (2017) Music 2017-12-25
Star S02E08 HDTV \ x264 \ XviD \ 720p TV Shows 2017-12-25
Victoria and Abdul (2017) BDRip x264-GECKOS Movies 2017-12-25
The Flash 2014 S04E09 720p HDTV x264-SVA TV Shows 2017-12-25
Roadie (2011) 720p BRRip H264 AAC-RARBG Movies 2017-12-25
Seal Team S01E09 HDTV x264-LOL TV Shows 2017-12-25
Law and Order SVU S19E07 iNTERNAL HDTV XviD-AFG TV Shows 2017-12-25
VA - Nothing But Drum and Bass Weapons Vol 03 (2017) Music 2017-12-25
VA - Bright The Album (Pre-Order - 4 tracks) (2017) Music 2017-12-25
Grave Encounters 2 (2012) 720p BRRip H264 AAC-RARBG Movies 2017-12-25
South Park S21E10 HDTV x264-SVA TV Shows 2017-12-25
The Marvelous Mrs Maisel S01E02 WEB H264-STRiFE TV Shows 2017-12-25
The Foreigner (2017) HC 1080p WEBRip x264-iExTV Movies 2017-12-25
Breezy (1973) 720p BRRip H264 AAC-RARBG Movies 2017-12-25
Vikings S05E03 720p HDTV x264-KILLERS TV Shows 2017-12-25
Dice S02E06 HDTV XviD-AFG TV Shows 2017-12-25